createdAt,value
2022-12-15T00:00:01.280Z,67.03
2022-12-15T00:01:01.607Z,53.98
2022-12-15T00:02:01.908Z,52.69
2022-12-15T00:03:02.171Z,52.37
2022-12-15T00:04:02.526Z,52.85
2022-12-15T00:05:02.744Z,55.27
2022-12-15T00:06:03.066Z,60.59
2022-12-15T00:07:03.370Z,53.33
2022-12-15T00:08:03.676Z,74.44
2022-12-15T00:09:04.015Z,52.21
2022-12-15T00:10:04.724Z,53.17
2022-12-15T00:11:04.553Z,55.91
2022-12-15T00:12:04.924Z,53.17
2022-12-15T00:13:05.300Z,65.26
2022-12-15T00:14:05.580Z,54.62
2022-12-15T00:15:05.786Z,51.40
2022-12-15T00:16:06.018Z,53.82
2022-12-15T00:17:06.278Z,55.59
2022-12-15T00:18:06.598Z,53.82
2022-12-15T00:19:07.085Z,52.69
2022-12-15T00:20:07.275Z,72.19
2022-12-15T00:21:07.551Z,52.85
2022-12-15T00:22:07.749Z,54.30
2022-12-15T00:23:08.051Z,60.91
2022-12-15T00:24:09.334Z,51.56
2022-12-15T00:25:08.655Z,77.02
2022-12-15T00:26:08.978Z,66.06
2022-12-15T00:27:10.141Z,59.30
2022-12-15T00:28:10.402Z,56.72
2022-12-15T00:29:09.902Z,53.50
2022-12-15T00:30:10.167Z,50.43
2022-12-15T00:31:10.458Z,59.94
2022-12-15T00:32:10.713Z,52.05
2022-12-15T00:33:11.037Z,56.24
2022-12-15T00:34:11.378Z,51.40
2022-12-15T00:35:11.627Z,53.01
2022-12-15T00:36:11.987Z,54.62
2022-12-15T00:37:12.183Z,54.95
2022-12-15T00:38:12.528Z,52.85
2022-12-15T00:39:12.724Z,55.43
2022-12-15T00:40:13.081Z,52.69
2022-12-15T00:41:13.446Z,55.43
2022-12-15T00:42:13.754Z,50.43
2022-12-15T00:43:14.052Z,57.52
2022-12-15T00:44:18.923Z,49.79
2022-12-15T00:45:15.675Z,50.43
2022-12-15T00:46:15.141Z,50.27
2022-12-15T00:47:15.356Z,55.91
2022-12-15T00:48:15.697Z,54.30
2022-12-15T00:49:16.062Z,50.43
2022-12-15T00:50:16.281Z,56.07
2022-12-15T00:51:16.488Z,52.69
2022-12-15T00:52:16.746Z,74.77
2022-12-15T00:53:16.999Z,73.80
2022-12-15T00:54:18.266Z,51.72
2022-12-15T00:55:17.584Z,49.79
2022-12-15T00:56:17.935Z,53.17
2022-12-15T00:57:18.169Z,50.92
2022-12-15T00:58:18.521Z,70.25
2022-12-15T00:59:18.740Z,50.92
2022-12-15T01:00:19.077Z,50.92
2022-12-15T01:01:19.458Z,50.11
2022-12-15T01:02:19.889Z,55.11
2022-12-15T01:03:20.017Z,62.84
2022-12-15T01:04:20.225Z,50.92
2022-12-15T01:05:20.478Z,52.21
2022-12-15T01:07:54.449Z,73.32
2022-12-15T01:08:36.441Z,50.11
2022-12-15T01:09:36.680Z,50.11
2022-12-15T01:10:37.050Z,53.98
2022-12-15T01:11:37.158Z,51.40
2022-12-15T01:12:37.499Z,61.87
2022-12-15T01:13:37.826Z,68.00
2022-12-15T01:14:38.082Z,53.50
2022-12-15T01:15:38.293Z,52.05
2022-12-15T01:16:38.769Z,52.21
2022-12-15T01:17:38.891Z,52.05
2022-12-15T01:18:39.187Z,52.53
2022-12-15T01:19:39.414Z,54.62
2022-12-15T01:20:39.735Z,51.24
2022-12-15T01:21:40.078Z,57.85
2022-12-15T01:22:40.308Z,52.05
2022-12-15T01:23:40.554Z,50.60
2022-12-15T01:24:40.895Z,53.98
2022-12-15T01:25:41.087Z,51.24
2022-12-15T01:26:41.472Z,51.88
2022-12-15T01:27:41.667Z,50.27
2022-12-15T01:28:41.947Z,50.60
2022-12-15T01:29:42.163Z,50.11
2022-12-15T01:30:42.559Z,61.23
2022-12-15T01:31:42.871Z,51.72
2022-12-15T01:32:46.184Z,50.76
2022-12-15T01:33:43.368Z,52.21
2022-12-15T01:34:43.751Z,50.76
2022-12-15T01:35:43.977Z,51.40
2022-12-15T01:36:44.306Z,53.17
2022-12-15T01:37:44.579Z,52.05
2022-12-15T01:38:49.282Z,51.56
2022-12-15T01:39:45.966Z,50.11
2022-12-15T01:40:45.325Z,51.24
2022-12-15T01:41:45.631Z,50.60
2022-12-15T01:42:45.881Z,56.40
2022-12-15T01:43:46.106Z,49.95
2022-12-15T01:44:46.448Z,49.95
2022-12-15T01:45:46.691Z,49.95
2022-12-15T01:46:47.012Z,49.95
2022-12-15T01:47:47.106Z,51.24
2022-12-15T01:48:47.419Z,50.11
2022-12-15T01:49:47.747Z,49.95
2022-12-15T01:50:48.153Z,49.79
2022-12-15T01:51:48.396Z,51.40
2022-12-15T01:52:49.649Z,52.21
2022-12-15T01:53:50.254Z,49.79
2022-12-15T01:54:49.268Z,51.88
2022-12-15T01:55:49.702Z,50.76
2022-12-15T01:56:49.992Z,50.11
2022-12-15T01:57:50.205Z,51.08
2022-12-15T01:58:50.543Z,51.72
2022-12-15T01:59:50.913Z,62.36
2022-12-15T02:00:51.263Z,50.27
2022-12-15T02:01:51.759Z,52.69
2022-12-15T02:02:51.947Z,50.11
2022-12-15T02:03:52.106Z,57.20
2022-12-15T02:04:52.389Z,51.40
2022-12-15T02:05:52.636Z,50.43
2022-12-15T02:06:52.843Z,50.43
2022-12-15T02:07:53.078Z,51.24
2022-12-15T02:08:53.433Z,50.11
2022-12-15T02:09:53.769Z,50.43
2022-12-15T02:10:54.058Z,51.56
2022-12-15T02:11:54.411Z,51.72
2022-12-15T02:12:54.720Z,49.95
2022-12-15T02:13:55.526Z,52.37
2022-12-15T02:14:55.291Z,56.72
2022-12-15T02:15:55.646Z,52.21
2022-12-15T02:16:55.910Z,60.42
2022-12-15T02:17:56.207Z,56.24
2022-12-15T02:18:56.566Z,56.72
2022-12-15T02:19:56.864Z,50.11
2022-12-15T02:20:57.293Z,54.14
2022-12-15T02:21:57.492Z,51.08
2022-12-15T02:22:58.011Z,57.85
2022-12-15T02:23:58.065Z,52.37
2022-12-15T02:24:58.393Z,51.72
2022-12-15T02:25:58.714Z,50.11
2022-12-15T02:26:59.216Z,49.79
2022-12-15T02:27:59.239Z,50.60
2022-12-15T02:28:59.565Z,49.79
2022-12-15T02:29:59.861Z,50.27
2022-12-15T02:31:00.036Z,49.79
2022-12-15T02:32:00.477Z,50.11
2022-12-15T02:33:00.749Z,50.43
2022-12-15T02:34:00.965Z,65.58
2022-12-15T02:35:01.209Z,52.69
2022-12-15T02:36:01.581Z,50.60
2022-12-15T02:37:01.861Z,52.05
2022-12-15T02:38:02.088Z,49.95
2022-12-15T02:39:02.398Z,51.08
2022-12-15T02:40:02.653Z,52.37
2022-12-15T02:41:02.945Z,52.21
2022-12-15T02:42:03.295Z,49.95
2022-12-15T02:43:03.580Z,51.72
2022-12-15T02:44:03.755Z,51.72
2022-12-15T02:45:04.150Z,55.11
2022-12-15T02:46:04.491Z,55.27
2022-12-15T02:47:04.648Z,50.27
2022-12-15T02:48:04.952Z,68.96
2022-12-15T02:49:05.335Z,50.76
2022-12-15T02:50:05.501Z,78.63
2022-12-15T02:51:05.865Z,49.79
2022-12-15T02:52:06.172Z,50.27
2022-12-15T02:53:06.542Z,53.82
2022-12-15T02:54:06.914Z,49.79
2022-12-15T02:55:07.179Z,50.76
2022-12-15T02:56:07.525Z,51.08
2022-12-15T02:57:07.842Z,50.43
2022-12-15T02:58:08.026Z,51.08
2022-12-15T02:59:08.410Z,51.24
2022-12-15T03:00:08.701Z,53.82
2022-12-15T03:01:09.184Z,51.40
2022-12-15T03:02:09.473Z,51.40
2022-12-15T03:03:09.809Z,52.85
2022-12-15T03:04:10.018Z,52.05
2022-12-15T03:05:10.338Z,50.60
2022-12-15T03:06:10.532Z,58.33
2022-12-15T03:07:10.885Z,49.95
2022-12-15T03:08:11.207Z,50.11
2022-12-15T03:09:11.544Z,52.53
2022-12-15T03:10:11.935Z,55.59
2022-12-15T03:11:12.189Z,52.69
2022-12-15T03:12:12.364Z,54.62
2022-12-15T03:13:12.748Z,51.40
2022-12-15T03:14:13.030Z,57.20
2022-12-15T03:15:13.499Z,62.68
2022-12-15T03:16:13.757Z,56.72
2022-12-15T03:17:13.926Z,53.66
2022-12-15T03:18:14.267Z,51.40
2022-12-15T03:19:14.655Z,52.21
2022-12-15T03:20:14.874Z,52.05
2022-12-15T03:21:15.217Z,53.66
2022-12-15T03:22:16.508Z,51.08
2022-12-15T03:23:15.846Z,54.62
2022-12-15T03:24:16.067Z,50.43
2022-12-15T03:25:16.410Z,54.30
2022-12-15T03:26:16.578Z,53.01
2022-12-15T03:27:16.943Z,53.17
2022-12-15T03:28:17.274Z,53.33
2022-12-15T03:29:17.610Z,50.27
2022-12-15T03:30:18.799Z,51.24
2022-12-15T03:31:18.164Z,51.56
2022-12-15T03:32:18.472Z,56.88
2022-12-15T03:33:18.708Z,49.95
2022-12-15T03:34:18.891Z,55.59
2022-12-15T03:35:19.251Z,50.60
2022-12-15T03:36:19.560Z,51.40
2022-12-15T03:37:19.893Z,55.27
2022-12-15T03:38:20.194Z,51.40
2022-12-15T03:39:20.665Z,52.85
2022-12-15T03:40:20.858Z,52.21
2022-12-15T03:41:21.264Z,54.95
2022-12-15T03:42:21.491Z,55.91
2022-12-15T03:43:21.837Z,50.92
2022-12-15T03:44:22.131Z,52.21
2022-12-15T03:45:22.373Z,52.21
2022-12-15T03:46:22.811Z,60.26
2022-12-15T03:47:23.061Z,53.33
2022-12-15T03:48:23.259Z,58.49
2022-12-15T03:49:23.584Z,53.17
2022-12-15T03:50:23.915Z,53.50
2022-12-15T03:51:24.223Z,52.85
2022-12-15T03:52:24.523Z,53.17
2022-12-15T03:53:24.851Z,51.88
2022-12-15T03:54:25.424Z,51.24
2022-12-15T03:55:25.521Z,56.24
2022-12-15T03:56:25.693Z,52.53
2022-12-15T03:57:26.069Z,52.69
2022-12-15T03:58:26.364Z,52.53
2022-12-15T03:59:26.716Z,63.33
2022-12-15T04:00:27.062Z,51.40
2022-12-15T04:01:27.520Z,51.40
2022-12-15T04:02:27.861Z,51.88
2022-12-15T04:03:28.170Z,68.80
2022-12-15T04:04:28.144Z,52.21
2022-12-15T04:05:28.414Z,58.97
2022-12-15T04:06:28.624Z,54.62
2022-12-15T04:07:28.951Z,55.59
2022-12-15T04:08:29.240Z,72.51
2022-12-15T04:09:29.742Z,56.72
2022-12-15T04:10:33.914Z,57.69
2022-12-15T04:11:30.183Z,59.46
2022-12-15T04:12:30.501Z,56.88
2022-12-15T04:13:31.056Z,62.04
2022-12-15T04:14:31.119Z,52.69
2022-12-15T04:15:31.415Z,51.24
2022-12-15T04:16:31.676Z,51.72
2022-12-15T04:17:31.871Z,71.87
2022-12-15T04:18:32.225Z,53.50
2022-12-15T04:19:32.537Z,51.08
2022-12-15T04:20:32.874Z,55.11
2022-12-15T04:21:33.235Z,52.37
2022-12-15T04:22:33.422Z,60.59
2022-12-15T04:23:33.943Z,60.42
2022-12-15T04:24:34.091Z,66.06
2022-12-15T04:25:34.494Z,58.33
2022-12-15T04:26:34.711Z,51.56
2022-12-15T04:27:35.027Z,75.25
2022-12-15T04:28:35.318Z,63.33
2022-12-15T04:29:35.530Z,61.07
2022-12-15T04:30:35.878Z,56.88
2022-12-15T04:31:36.191Z,60.75
2022-12-15T04:32:36.385Z,53.50
2022-12-15T04:33:37.266Z,52.37
2022-12-15T04:34:37.016Z,53.66
2022-12-15T04:35:37.403Z,60.26
2022-12-15T04:36:37.639Z,54.62
2022-12-15T04:37:37.943Z,56.40
2022-12-15T04:38:38.443Z,53.66
2022-12-15T04:39:38.994Z,53.50
2022-12-15T04:40:38.853Z,53.98
2022-12-15T04:41:39.184Z,56.07
2022-12-15T04:42:39.531Z,56.56
2022-12-15T04:43:39.755Z,59.78
2022-12-15T04:44:40.069Z,53.50
2022-12-15T04:45:40.397Z,53.66
2022-12-15T04:46:40.814Z,56.24
2022-12-15T04:47:41.066Z,56.88
2022-12-15T04:48:41.700Z,53.17
2022-12-15T04:49:41.745Z,55.59
2022-12-15T04:50:41.927Z,62.04
2022-12-15T04:51:42.348Z,54.46
2022-12-15T04:52:42.604Z,52.85
2022-12-15T04:53:42.917Z,55.43
2022-12-15T04:54:43.338Z,60.10
2022-12-15T04:55:43.582Z,63.00
2022-12-15T04:56:43.783Z,69.93
2022-12-15T04:57:44.176Z,54.14
2022-12-15T04:58:44.350Z,55.43
2022-12-15T04:59:44.746Z,60.10
2022-12-15T05:00:44.974Z,65.90
2022-12-15T05:01:45.441Z,53.98
2022-12-15T05:02:45.568Z,70.58
2022-12-15T05:03:45.803Z,71.22
2022-12-15T05:04:46.179Z,60.26
2022-12-15T05:05:46.464Z,53.98
2022-12-15T05:06:46.650Z,60.59
2022-12-15T05:07:46.995Z,54.62
2022-12-15T05:08:47.319Z,63.49
2022-12-15T05:09:47.717Z,63.97
2022-12-15T05:10:47.831Z,52.85
2022-12-15T05:11:48.224Z,60.42
2022-12-15T05:12:48.480Z,56.07
2022-12-15T05:13:48.725Z,72.35
2022-12-15T05:14:49.413Z,59.78
2022-12-15T05:15:49.339Z,56.72
2022-12-15T05:16:49.600Z,54.79
2022-12-15T05:17:49.790Z,57.20
2022-12-15T05:18:50.122Z,54.14
2022-12-15T05:19:50.499Z,55.91
2022-12-15T05:20:50.678Z,56.07
2022-12-15T05:21:51.132Z,57.69
2022-12-15T05:22:51.356Z,54.62
2022-12-15T05:23:51.679Z,64.45
2022-12-15T05:24:51.936Z,65.10
2022-12-15T05:25:52.247Z,55.75
2022-12-15T05:26:53.515Z,63.16
2022-12-15T05:27:52.845Z,54.95
2022-12-15T05:28:53.033Z,78.15
2022-12-15T05:29:53.251Z,90.72
2022-12-15T05:30:53.604Z,86.21
2022-12-15T05:31:53.848Z,78.96
2022-12-15T05:32:54.177Z,63.00
2022-12-15T05:33:57.181Z,61.07
2022-12-15T05:34:55.738Z,53.17
2022-12-15T05:35:54.937Z,59.62
2022-12-15T05:36:55.251Z,59.30
2022-12-15T05:37:55.527Z,56.24
2022-12-15T05:38:55.790Z,76.22
2022-12-15T05:39:56.179Z,60.75
2022-12-15T05:40:56.506Z,65.58
2022-12-15T05:41:56.837Z,58.01
2022-12-15T05:42:57.104Z,58.81
2022-12-15T05:43:57.485Z,68.00
2022-12-15T05:44:57.758Z,72.35
2022-12-15T05:45:58.166Z,60.42
2022-12-15T05:46:58.318Z,56.40
2022-12-15T05:47:58.634Z,69.93
2022-12-15T05:48:58.951Z,77.02
2022-12-15T05:49:59.171Z,58.49
2022-12-15T05:51:00.361Z,58.97
2022-12-15T05:51:59.789Z,63.49
2022-12-15T05:53:00.142Z,62.84
2022-12-15T05:54:00.433Z,75.73
2022-12-15T05:55:00.699Z,60.91
2022-12-15T05:56:00.987Z,67.84
2022-12-15T05:57:01.241Z,57.20
2022-12-15T05:58:01.598Z,60.26
2022-12-15T05:59:01.906Z,59.30
2022-12-15T06:00:02.208Z,68.80
2022-12-15T06:01:02.562Z,66.55
2022-12-15T06:02:02.894Z,79.12
2022-12-15T06:03:03.192Z,57.52
2022-12-15T06:04:03.416Z,62.68
2022-12-15T06:05:03.823Z,58.97
2022-12-15T06:06:04.002Z,55.59
2022-12-15T06:07:04.314Z,60.26
2022-12-15T06:08:04.660Z,56.72
2022-12-15T06:09:04.882Z,59.62
2022-12-15T06:10:05.226Z,65.42
2022-12-15T06:11:05.403Z,60.10
2022-12-15T06:12:05.718Z,65.58
2022-12-15T06:13:05.953Z,66.87
2022-12-15T06:14:06.210Z,66.71
2022-12-15T06:15:06.520Z,57.20
2022-12-15T06:16:06.956Z,65.10
2022-12-15T06:17:07.135Z,73.96
2022-12-15T06:18:07.526Z,71.38
2022-12-15T06:19:07.817Z,67.03
2022-12-15T06:20:08.183Z,78.79
2022-12-15T06:21:08.559Z,73.96
2022-12-15T06:22:08.696Z,71.54
2022-12-15T06:23:08.915Z,59.78
2022-12-15T06:24:09.192Z,59.30
2022-12-15T06:25:09.543Z,54.46
2022-12-15T06:26:09.816Z,59.78
2022-12-15T06:27:10.121Z,66.39
2022-12-15T06:28:10.341Z,63.65
2022-12-15T06:29:10.689Z,60.26
2022-12-15T06:30:11.026Z,60.10
2022-12-15T06:31:11.387Z,81.21
2022-12-15T06:32:11.595Z,67.68
2022-12-15T06:33:11.862Z,64.78
2022-12-15T06:34:12.214Z,63.00
2022-12-15T06:35:12.467Z,64.61
2022-12-15T06:36:12.673Z,64.61
2022-12-15T06:37:13.031Z,61.07
2022-12-15T06:38:13.299Z,60.91
2022-12-15T06:39:13.517Z,64.45
2022-12-15T06:40:13.941Z,64.94
2022-12-15T06:41:14.241Z,62.68
2022-12-15T06:42:14.537Z,64.94
2022-12-15T06:43:14.866Z,69.93
2022-12-15T06:44:15.122Z,63.97
2022-12-15T06:45:15.503Z,66.87
2022-12-15T06:46:15.761Z,68.16
2022-12-15T06:47:15.903Z,76.22
2022-12-15T06:48:16.184Z,61.07
2022-12-15T06:49:16.373Z,71.22
2022-12-15T06:50:16.731Z,61.87
2022-12-15T06:51:17.631Z,78.31
2022-12-15T06:52:17.261Z,61.07
2022-12-15T06:53:17.499Z,61.23
2022-12-15T06:54:17.800Z,74.44
2022-12-15T06:55:18.040Z,73.48
2022-12-15T06:56:18.349Z,71.06
2022-12-15T06:57:18.559Z,69.29
2022-12-15T06:58:18.834Z,62.52
2022-12-15T06:59:19.088Z,73.96
2022-12-15T07:00:19.362Z,69.13
2022-12-15T07:01:19.720Z,61.71
2022-12-15T07:02:25.147Z,72.67
2022-12-15T07:03:21.381Z,61.23
2022-12-15T07:04:20.659Z,71.70
2022-12-15T07:05:20.859Z,61.87
2022-12-15T07:06:21.076Z,63.65
2022-12-15T07:07:21.371Z,79.12
2022-12-15T07:08:25.605Z,74.12
2022-12-15T07:09:22.929Z,57.69
2022-12-15T07:10:22.201Z,72.99
2022-12-15T07:11:22.424Z,78.96
2022-12-15T07:12:22.747Z,59.30
2022-12-15T07:13:23.047Z,61.23
2022-12-15T07:14:23.265Z,60.26
2022-12-15T07:15:23.546Z,60.75
2022-12-15T07:16:23.825Z,74.44
2022-12-15T07:17:24.052Z,79.92
2022-12-15T07:18:24.470Z,72.03
2022-12-15T07:19:25.661Z,58.17
2022-12-15T07:20:28.807Z,61.71
2022-12-15T07:21:25.211Z,59.62
2022-12-15T07:22:25.484Z,79.92
2022-12-15T07:23:46.037Z,78.96
2022-12-15T07:24:27.040Z,61.55
2022-12-15T07:25:26.313Z,72.83
2022-12-15T07:26:26.606Z,87.01
2022-12-15T07:27:26.879Z,67.51
2022-12-15T07:28:27.154Z,70.25
2022-12-15T07:29:27.431Z,68.80
2022-12-15T07:30:27.739Z,71.54
2022-12-15T07:31:28.078Z,68.48
2022-12-15T07:32:28.351Z,71.22
2022-12-15T07:33:28.836Z,69.13
2022-12-15T07:34:28.963Z,61.87
2022-12-15T07:35:29.257Z,66.55
2022-12-15T07:36:29.522Z,77.50
2022-12-15T07:37:29.866Z,64.45
2022-12-15T07:38:30.222Z,61.87
2022-12-15T07:39:30.364Z,67.19
2022-12-15T07:40:30.931Z,71.22
2022-12-15T07:41:30.973Z,65.58
2022-12-15T07:42:31.362Z,72.51
2022-12-15T07:43:32.073Z,59.94
2022-12-15T07:44:31.795Z,63.97
2022-12-15T07:45:32.171Z,62.04
2022-12-15T07:46:32.406Z,61.23
2022-12-15T07:47:32.622Z,63.81
2022-12-15T07:48:32.995Z,73.48
2022-12-15T07:49:33.129Z,76.70
2022-12-15T07:50:33.459Z,59.94
2022-12-15T07:51:33.692Z,70.25
2022-12-15T07:52:33.974Z,64.61
2022-12-15T07:53:34.804Z,60.26
2022-12-15T07:54:34.660Z,75.41
2022-12-15T07:56:04.951Z,63.49
2022-12-15T07:56:39.282Z,81.86
2022-12-15T07:57:35.471Z,73.96
2022-12-15T07:58:35.785Z,62.84
2022-12-15T07:59:36.061Z,65.10
2022-12-15T08:00:36.374Z,61.39
2022-12-15T08:01:36.847Z,60.59
2022-12-15T08:02:37.178Z,76.22
2022-12-15T08:03:38.001Z,66.39
2022-12-15T08:04:37.513Z,67.68
2022-12-15T08:05:37.736Z,65.26
2022-12-15T08:06:38.030Z,61.23
2022-12-15T08:07:38.377Z,71.22
2022-12-15T08:08:38.647Z,69.77
2022-12-15T08:09:38.883Z,71.06
2022-12-15T08:10:39.212Z,76.86
2022-12-15T08:11:39.573Z,61.23
2022-12-15T08:12:39.805Z,75.25
2022-12-15T08:14:41.502Z,63.16
2022-12-15T08:15:40.601Z,61.71
2022-12-15T08:16:40.980Z,66.87
2022-12-15T08:17:41.147Z,69.77
2022-12-15T08:18:41.448Z,66.39
2022-12-15T08:19:41.769Z,83.31
2022-12-15T08:20:42.074Z,62.20
2022-12-15T08:21:42.375Z,72.83
2022-12-15T08:22:42.659Z,63.00
2022-12-15T08:23:42.981Z,61.07
2022-12-15T08:24:43.331Z,60.26
2022-12-15T08:25:43.563Z,76.70
2022-12-15T08:26:43.862Z,60.10
2022-12-15T08:27:44.116Z,74.44
2022-12-15T08:28:44.416Z,70.90
2022-12-15T08:29:52.535Z,70.58
2022-12-15T08:30:46.013Z,71.06
2022-12-15T08:31:45.395Z,73.15
2022-12-15T08:32:50.163Z,62.84
2022-12-15T08:33:46.818Z,71.54
2022-12-15T08:34:46.150Z,69.13
2022-12-15T08:35:56.830Z,73.96
2022-12-15T08:36:47.671Z,76.54
2022-12-15T08:37:46.956Z,74.12
2022-12-15T08:38:47.239Z,64.45
2022-12-15T08:39:47.554Z,77.99
2022-12-15T08:40:47.809Z,69.77
2022-12-15T08:41:48.126Z,66.23
2022-12-15T08:42:48.381Z,65.58
2022-12-15T08:43:49.517Z,60.42
2022-12-15T08:44:49.000Z,63.00
2022-12-15T08:45:50.222Z,68.64
2022-12-15T08:46:49.651Z,62.36
2022-12-15T08:47:49.891Z,71.54
2022-12-15T08:48:50.272Z,70.58
2022-12-15T08:49:50.523Z,72.19
2022-12-15T08:50:50.830Z,75.09
2022-12-15T08:51:51.088Z,66.06
2022-12-15T08:53:21.254Z,71.54
2022-12-15T08:53:52.675Z,67.68
2022-12-15T08:54:51.992Z,68.64
2022-12-15T08:55:52.337Z,61.07
2022-12-15T08:56:52.613Z,76.38
2022-12-15T08:57:52.941Z,72.99
2022-12-15T08:58:53.184Z,60.26
2022-12-15T08:59:53.492Z,65.10
2022-12-15T09:00:53.892Z,60.91
2022-12-15T09:01:55.661Z,70.42
2022-12-15T09:02:54.450Z,76.70
2022-12-15T09:03:54.731Z,68.00
2022-12-15T09:04:55.034Z,60.26
2022-12-15T09:05:55.242Z,58.81
2022-12-15T09:06:55.489Z,67.35
2022-12-15T09:07:55.781Z,61.55
2022-12-15T09:08:56.075Z,72.99
2022-12-15T09:09:56.355Z,63.33
2022-12-15T09:10:56.677Z,67.84
2022-12-15T09:11:56.991Z,64.61
2022-12-15T09:12:57.308Z,82.18
2022-12-15T09:13:57.623Z,73.32
2022-12-15T09:14:57.970Z,65.26
2022-12-15T09:16:13.497Z,63.16
2022-12-15T09:16:59.576Z,68.48
2022-12-15T09:17:58.838Z,76.70
2022-12-15T09:18:59.132Z,65.74
2022-12-15T09:19:59.453Z,72.03
2022-12-15T09:20:59.740Z,76.70
2022-12-15T09:22:00.170Z,65.58
2022-12-15T09:23:00.294Z,66.23
2022-12-15T09:24:00.906Z,77.99
2022-12-15T09:25:00.887Z,81.21
2022-12-15T09:26:01.151Z,79.60
2022-12-15T09:27:01.486Z,72.51
2022-12-15T09:28:01.761Z,70.90
2022-12-15T09:29:02.270Z,67.19
2022-12-15T09:30:02.384Z,67.35
2022-12-15T09:31:02.772Z,71.06
2022-12-15T09:32:02.916Z,81.05
2022-12-15T09:33:03.208Z,73.80
2022-12-15T09:34:03.519Z,69.13
2022-12-15T09:35:03.846Z,68.48
2022-12-15T09:36:04.175Z,76.86
2022-12-15T09:37:04.459Z,77.67
2022-12-15T09:38:04.700Z,74.60
2022-12-15T09:39:04.945Z,66.55
2022-12-15T09:40:05.290Z,72.51
2022-12-15T09:41:05.538Z,72.51
2022-12-15T09:42:05.802Z,90.07
2022-12-15T09:43:33.457Z,67.68
2022-12-15T09:44:07.454Z,80.57
2022-12-15T09:45:07.157Z,79.60
2022-12-15T09:46:07.077Z,75.89
2022-12-15T09:47:07.348Z,64.61
2022-12-15T09:48:07.670Z,62.20
2022-12-15T09:49:07.939Z,86.04
2022-12-15T09:50:08.180Z,63.97
2022-12-15T09:51:08.514Z,64.78
2022-12-15T09:52:11.278Z,77.34
2022-12-15T09:53:23.288Z,63.65
2022-12-15T09:54:10.382Z,62.84
2022-12-15T09:55:09.857Z,68.16
2022-12-15T09:56:10.024Z,61.39
2022-12-15T09:57:10.333Z,69.13
2022-12-15T09:58:11.287Z,61.71
2022-12-15T09:59:10.885Z,66.71
2022-12-15T10:00:11.226Z,80.57
2022-12-15T10:01:11.472Z,77.18
2022-12-15T10:02:11.821Z,79.44
2022-12-15T10:03:12.169Z,77.83
2022-12-15T10:04:12.377Z,72.99
2022-12-15T10:05:12.673Z,77.02
2022-12-15T10:07:14.277Z,67.19
2022-12-15T10:08:13.570Z,65.74
2022-12-15T10:09:13.835Z,64.13
2022-12-15T10:10:14.187Z,62.04
2022-12-15T10:11:14.458Z,68.80
2022-12-15T10:12:14.706Z,69.13
2022-12-15T10:13:15.080Z,73.48
2022-12-15T10:14:15.273Z,73.64
2022-12-15T10:15:15.704Z,71.38
2022-12-15T10:16:15.888Z,77.02
2022-12-15T10:17:16.646Z,67.19
2022-12-15T10:18:16.505Z,63.81
2022-12-15T10:19:16.803Z,61.71
2022-12-15T10:20:17.104Z,59.78
2022-12-15T10:21:17.415Z,62.68
2022-12-15T10:22:17.704Z,67.84
2022-12-15T10:23:18.553Z,61.71
2022-12-15T10:24:37.542Z,61.87
2022-12-15T10:25:25.365Z,77.99
2022-12-15T10:26:19.916Z,61.71
2022-12-15T10:27:19.248Z,67.35
2022-12-15T10:28:19.529Z,62.84
2022-12-15T10:29:19.850Z,77.99
2022-12-15T10:30:20.271Z,63.16
2022-12-15T10:31:20.450Z,67.03
2022-12-15T10:32:20.699Z,73.64
2022-12-15T10:33:21.001Z,70.74
2022-12-15T10:34:21.289Z,72.03
2022-12-15T10:35:22.029Z,67.03
2022-12-15T10:36:21.893Z,67.84
2022-12-15T10:37:22.153Z,74.12
2022-12-15T10:38:22.430Z,65.58
2022-12-15T10:39:22.751Z,64.78
2022-12-15T10:40:23.150Z,65.58
2022-12-15T10:41:23.365Z,76.22
2022-12-15T10:42:23.617Z,67.19
2022-12-15T10:43:23.955Z,59.30
2022-12-15T10:44:30.324Z,60.59
2022-12-15T10:45:25.523Z,59.62
2022-12-15T10:46:24.888Z,59.30
2022-12-15T10:47:25.161Z,72.35
2022-12-15T10:48:25.423Z,67.03
2022-12-15T10:49:25.727Z,77.02
2022-12-15T10:50:26.079Z,70.58
2022-12-15T10:51:26.288Z,71.22
2022-12-15T10:52:26.540Z,74.44
2022-12-15T10:53:26.829Z,63.81
2022-12-15T10:54:27.124Z,64.29
2022-12-15T10:55:27.453Z,66.39
2022-12-15T10:56:33.261Z,67.84
2022-12-15T10:57:29.077Z,63.49
2022-12-15T10:58:28.370Z,83.95
2022-12-15T10:59:28.641Z,58.81
2022-12-15T11:00:28.960Z,66.23
2022-12-15T11:01:29.905Z,72.99
2022-12-15T11:02:29.835Z,75.09
2022-12-15T11:03:30.771Z,63.49
2022-12-15T11:04:30.341Z,63.00
2022-12-15T11:05:30.512Z,68.00
2022-12-15T11:06:30.822Z,60.59
2022-12-15T11:07:31.182Z,61.87
2022-12-15T11:08:31.392Z,60.75
2022-12-15T11:09:31.712Z,67.19
2022-12-15T11:10:31.964Z,73.48
2022-12-15T11:11:32.258Z,74.93
2022-12-15T11:12:32.589Z,68.00
2022-12-15T11:13:35.007Z,67.68
2022-12-15T11:14:33.231Z,76.05
2022-12-15T11:15:33.526Z,73.96
2022-12-15T11:16:33.862Z,64.78
2022-12-15T11:17:34.154Z,64.29
2022-12-15T11:18:34.447Z,68.00
2022-12-15T11:19:34.684Z,63.33
2022-12-15T11:20:34.995Z,63.00
2022-12-15T11:21:35.293Z,78.96
2022-12-15T11:22:35.590Z,75.25
2022-12-15T11:23:36.033Z,71.54
2022-12-15T11:24:36.110Z,65.10
2022-12-15T11:25:36.435Z,69.13
2022-12-15T11:26:36.775Z,68.16
2022-12-15T11:27:37.006Z,70.90
2022-12-15T11:28:37.404Z,66.39
2022-12-15T11:29:37.567Z,63.97
2022-12-15T11:30:37.853Z,72.19
2022-12-15T11:31:38.148Z,67.19
2022-12-15T11:32:38.442Z,75.41
2022-12-15T11:33:38.756Z,64.29
2022-12-15T11:34:39.138Z,69.93
2022-12-15T11:35:39.383Z,61.07
2022-12-15T11:36:39.645Z,69.13
2022-12-15T11:37:39.994Z,68.48
2022-12-15T11:38:40.275Z,63.49
2022-12-15T11:39:40.546Z,69.61
2022-12-15T11:40:41.086Z,65.42
2022-12-15T11:41:41.168Z,66.55
2022-12-15T11:42:41.558Z,68.00
2022-12-15T11:43:41.719Z,68.64
2022-12-15T11:44:41.964Z,72.35
2022-12-15T11:45:42.295Z,71.22
2022-12-15T11:46:42.571Z,65.42
2022-12-15T11:47:42.845Z,65.58
2022-12-15T11:48:44.005Z,68.96
2022-12-15T11:49:43.404Z,66.87
2022-12-15T11:50:43.651Z,73.80
2022-12-15T11:51:44.029Z,61.71
2022-12-15T11:52:44.270Z,69.61
2022-12-15T11:53:44.538Z,67.19
2022-12-15T11:54:44.807Z,70.74
2022-12-15T11:55:45.064Z,66.39
2022-12-15T11:56:45.518Z,75.25
2022-12-15T11:57:45.627Z,64.94
2022-12-15T11:58:45.933Z,66.55
2022-12-15T11:59:46.172Z,61.87
2022-12-15T12:00:46.445Z,63.49
2022-12-15T12:02:48.172Z,68.00
2022-12-15T12:03:47.372Z,67.51
2022-12-15T12:04:47.625Z,68.80
2022-12-15T12:05:48.077Z,68.00
2022-12-15T12:06:48.181Z,67.19
2022-12-15T12:07:49.050Z,69.61
2022-12-15T12:08:51.328Z,66.23
2022-12-15T12:09:49.186Z,75.73
2022-12-15T12:10:49.391Z,68.00
2022-12-15T12:12:51.019Z,75.57
2022-12-15T12:13:50.406Z,70.09
2022-12-15T12:14:50.830Z,73.64
2022-12-15T12:15:50.768Z,74.28
2022-12-15T12:16:51.010Z,68.16
2022-12-15T12:17:51.394Z,60.91
2022-12-15T12:18:51.646Z,64.78
2022-12-15T12:19:51.941Z,69.13
2022-12-15T12:20:52.176Z,76.54
2022-12-15T12:21:53.893Z,66.23
2022-12-15T12:22:52.703Z,77.50
2022-12-15T12:23:52.993Z,67.51
2022-12-15T12:24:53.735Z,70.25
2022-12-15T12:25:55.805Z,76.54
2022-12-15T12:26:53.814Z,72.35
2022-12-15T12:27:54.141Z,71.06
2022-12-15T12:28:54.424Z,74.12
2022-12-15T12:29:54.730Z,78.79
2022-12-15T12:30:54.990Z,68.00
2022-12-15T12:31:59.072Z,75.57
2022-12-15T12:32:56.582Z,69.29
2022-12-15T12:33:55.940Z,70.09
2022-12-15T12:35:57.448Z,75.73
2022-12-15T12:36:56.693Z,73.32
2022-12-15T12:38:01.374Z,71.22
2022-12-15T12:38:58.212Z,68.64
2022-12-15T12:39:57.516Z,75.57
2022-12-15T12:40:57.738Z,65.90
2022-12-15T12:41:58.082Z,67.84
2022-12-15T12:42:58.375Z,63.97
2022-12-15T12:43:58.878Z,74.44
2022-12-15T12:44:58.900Z,63.97
2022-12-15T12:45:59.273Z,72.35
2022-12-15T12:46:59.566Z,71.22
2022-12-15T12:47:59.850Z,63.81
2022-12-15T12:49:00.080Z,64.61
2022-12-15T12:50:00.346Z,63.97
2022-12-15T12:51:00.626Z,72.99
2022-12-15T12:52:00.934Z,74.44
2022-12-15T12:53:01.206Z,77.99
2022-12-15T12:54:01.492Z,69.29
2022-12-15T12:55:01.823Z,60.42
2022-12-15T12:56:02.100Z,68.48
2022-12-15T12:57:02.370Z,67.68
2022-12-15T12:58:02.643Z,70.09
2022-12-15T12:59:02.976Z,73.15
2022-12-15T13:00:03.228Z,66.55
2022-12-15T13:01:03.672Z,70.09
2022-12-15T13:02:03.911Z,72.67